Time;durP1;ratioP1;P1;durP2;ratioP2;P2;SDS_P1;SDS_P2;PMS_P1;PMS_P2;Temp;Humidity;BMP_temperature;BMP_pressure;BME280_temperature;BME280_humidity;BME280_pressure;Samples;Min_cycle;Max_cycle;Signal;HPM_P1;HPM_P2
2023/04/19 00:03:16;;;;;;;7.33;5.70;;;;;;;;;;20830269;28;20270;-65
2023/04/19 00:13:18;;;;;;;6.60;5.63;;;11.50;92.80;;;;;;20829815;28;20216;-64
2023/04/19 00:23:19;;;;;;;6.93;5.03;;;11.50;92.90;;;;;;20829242;28;20224;-65
2023/04/19 00:33:21;;;;;;;7.47;5.47;;;11.60;93.20;;;;;;20829301;28;20684;-66
2023/04/19 00:43:23;;;;;;;7.30;5.80;;;;;;;;;;20828348;28;20244;-66
2023/04/19 00:53:26;;;;;;;8.30;5.90;;;11.60;93.10;;;;;;20834677;28;20261;-67
2023/04/19 01:03:28;;;;;;;7.37;5.97;;;;;;;;;;20843454;28;20719;-66
2023/04/19 01:13:30;;;;;;;9.97;6.00;;;11.50;93.20;;;;;;20842468;28;20213;-65
2023/04/19 01:23:32;;;;;;;11.30;6.27;;;11.40;93.30;;;;;;20841671;28;20565;-65
2023/04/19 01:33:33;;;;;;;10.07;6.93;;;11.40;93.40;;;;;;20841329;28;20209;-73
2023/04/19 01:43:35;;;;;;;10.23;7.40;;;11.50;93.50;;;;;;20839744;28;20643;-71
2023/04/19 01:53:37;;;;;;;11.43;8.10;;;11.50;93.60;;;;;;20839437;28;20215;-72
2023/04/19 02:03:39;;;;;;;10.03;7.60;;;11.40;93.70;;;;;;20837712;28;20238;-72
2023/04/19 02:13:41;;;;;;;9.07;7.20;;;11.50;93.80;;;;;;20837910;28;20213;-72
2023/04/19 02:23:43;;;;;;;11.27;8.30;;;11.40;93.90;;;;;;20837196;28;20685;-65
2023/04/19 02:33:45;;;;;;;12.40;8.27;;;11.30;94.00;;;;;;20836578;28;20213;-72
2023/04/19 02:43:47;;;;;;;10.80;7.87;;;11.40;94.40;;;;;;20835260;28;20229;-70
2023/04/19 02:53:49;;;;;;;10.57;8.33;;;;;;;;;;20834502;28;20215;-71
2023/04/19 03:03:51;;;;;;;11.20;8.13;;;11.40;94.30;;;;;;20833720;28;20646;-72
2023/04/19 03:13:52;;;;;;;14.00;8.17;;;11.40;94.40;;;;;;20832235;28;20211;-71
2023/04/19 03:23:55;;;;;;;12.60;8.03;;;11.30;94.60;;;;;;20832081;28;20276;-72
2023/04/19 03:33:57;;;;;;;13.57;8.63;;;11.30;94.90;;;;;;20831919;28;20662;-65
2023/04/19 03:43:58;;;;;;;11.47;8.43;;;11.20;95.10;;;;;;20831141;28;20599;-72
2023/04/19 03:54:00;;;;;;;11.10;8.20;;;11.20;95.40;;;;;;20830752;28;20216;-72
2023/04/19 04:04:02;;;;;;;13.87;8.60;;;11.20;95.60;;;;;;20830056;28;20298;-72
2023/04/19 04:14:05;;;;;;;15.50;9.30;;;11.20;95.70;;;;;;20829893;28;20217;-72
2023/04/19 04:24:08;;;;;;;15.20;8.23;;;11.20;96.00;;;;;;20829357;28;20694;-72
2023/04/19 04:34:10;;;;;;;9.37;7.60;;;11.20;96.10;;;;;;20845539;28;20264;-66
2023/04/19 04:44:12;;;;;;;12.10;8.60;;;11.20;96.50;;;;;;20844388;28;20231;-65
2023/04/19 04:54:13;;;;;;;14.53;8.70;;;11.20;96.90;;;;;;20843686;28;20215;-65
2023/04/19 05:04:15;;;;;;;19.10;8.90;;;11.20;97.40;;;;;;20842831;28;20646;-77
2023/04/19 05:14:18;;;;;;;14.70;9.07;;;11.20;97.80;;;;;;20840929;28;20208;-65
2023/04/19 05:24:19;;;;;;;18.23;8.80;;;11.10;98.10;;;;;;20821758;28;20269;-71
2023/04/19 05:34:21;;;;;;;16.10;9.43;;;11.00;98.60;;;;;;20852790;28;20205;-68
2023/04/19 05:44:23;;;;;;;15.33;9.53;;;11.00;98.80;;;;;;20813099;28;20235;-70
2023/04/19 05:54:26;;;;;;;17.70;10.37;;;11.30;99.00;;;;;;20846009;28;20217;-70
2023/04/19 06:04:28;;;;;;;13.30;9.70;;;11.40;98.90;;;;;;20848328;28;20684;-70
2023/04/19 06:14:30;;;;;;;12.30;10.07;;;11.50;98.70;;;;;;20837297;28;20208;-69
2023/04/19 06:24:32;;;;;;;13.70;10.10;;;11.60;98.20;;;;;;20836554;28;20724;-69
2023/04/19 06:34:35;;;;;;;13.47;10.23;;;11.70;97.90;;;;;;20835558;28;20207;-69
2023/04/19 06:44:37;;;;;;;12.07;9.07;;;11.70;97.30;;;;;;20834313;28;20726;-70
2023/04/19 06:54:39;;;;;;;15.87;9.70;;;11.90;97.00;;;;;;20832881;28;20566;-69
2023/04/19 07:04:41;;;;;;;10.87;8.90;;;11.90;96.50;;;;;;20832639;28;20307;-69
2023/04/19 07:14:43;;;;;;;10.93;7.47;;;12.00;95.80;;;;;;20832704;28;20215;-69
2023/04/19 07:24:45;;;;;;;8.47;6.60;;;12.10;94.70;;;;;;20831786;28;20301;-69
2023/04/19 07:34:46;;;;;;;7.53;6.07;;;12.30;93.70;;;;;;20831083;28;20248;-70
2023/04/19 07:44:48;;;;;;;10.40;6.67;;;12.20;92.80;;;;;;20829579;28;20319;-69
2023/04/19 07:54:50;;;;;;;8.37;6.50;;;12.10;91.90;;;;;;20829440;28;20215;-69
2023/04/19 08:04:52;;;;;;;10.80;6.47;;;12.40;91.40;;;;;;20829263;28;20654;-70
2023/04/19 08:14:54;;;;;;;8.57;5.93;;;12.60;90.60;;;;;;20828681;28;20260;-70
2023/04/19 08:25:11;;;;;;;10.10;6.40;;;12.60;90.00;;;;;;20828463;28;20233;-70
2023/04/19 08:35:13;;;;;;;7.97;6.07;;;12.50;89.20;;;;;;20828307;28;20215;-70
2023/04/19 08:45:15;;;;;;;7.40;5.60;;;12.60;89.00;;;;;;20827282;28;20248;-70
2023/04/19 08:55:29;;;;;;;12.40;5.83;;;12.70;88.40;;;;;;20841251;28;20716;-69
2023/04/19 09:05:30;;;;;;;7.07;5.53;;;12.80;87.80;;;;;;20826431;28;20327;-70
2023/04/19 09:15:40;;;;;;;6.70;5.30;;;13.00;86.70;;;;;;20834428;28;20208;-69
2023/04/19 09:25:59;;;;;;;8.93;5.17;;;13.00;85.20;;;;;;20840758;28;20243;-69
2023/04/19 09:36:29;;;;;;;6.83;5.33;;;13.20;83.50;;;;;;20841269;28;20213;-69
2023/04/19 09:46:35;;;;;;;6.27;4.90;;;13.50;81.70;;;;;;20839667;28;20298;-68
2023/04/19 09:56:38;;;;;;;8.30;5.23;;;13.60;80.30;;;;;;20837868;28;20691;-70
2023/04/19 10:06:42;;;;;;;6.33;4.87;;;13.70;78.90;;;;;;20836982;28;20321;-69
2023/04/19 10:17:04;;;;;;;5.67;4.70;;;13.80;77.40;;;;;;20838370;28;20259;-69
2023/04/19 10:27:11;;;;;;;7.27;5.00;;;13.80;77.90;;;;;;20835709;28;20242;-68
2023/04/19 10:37:13;;;;;;;7.07;5.60;;;13.80;75.90;;;;;;20834966;28;20208;-70
2023/04/19 10:47:42;;;;;;;11.17;5.97;;;14.10;75.00;;;;;;20834036;28;20696;-70
2023/04/19 10:58:06;;;;;;;8.57;6.47;;;14.10;72.20;;;;;;20833235;28;20547;-70
2023/04/19 11:08:08;;;;;;;11.67;6.37;;;14.10;69.00;;;;;;20832413;28;20761;-69
2023/04/19 11:18:17;;;;;;;7.90;5.07;;;14.00;69.50;;;;;;20832151;28;20210;-70
2023/04/19 11:28:20;;;;;;;7.83;4.53;;;14.20;67.80;;;;;;20827893;28;20229;-65
2023/04/19 11:38:22;;;;;;;5.50;3.90;;;14.60;66.20;;;;;;20788179;28;20207;-72
2023/04/19 11:48:24;;;;;;;8.00;3.60;;;15.10;61.90;;;;;;20796617;28;20356;-72
2023/04/19 11:58:35;;;;;;;4.43;3.13;;;15.30;59.10;;;;;;20749146;28;20304;-70
2023/04/19 12:08:41;;;;;;;5.43;2.80;;;15.10;56.40;;;;;;20806761;28;20239;-70
2023/04/19 12:18:44;;;;;;;4.70;2.50;;;15.10;56.90;;;;;;20828659;28;20268;-71
2023/04/19 12:28:45;;;;;;;6.10;2.30;;;15.70;53.50;;;;;;20827125;28;20712;-69
2023/04/19 12:38:47;;;;;;;3.50;2.07;;;;;;;;;;20799638;28;20238;-69
2023/04/19 12:48:49;;;;;;;6.23;2.20;;;15.80;50.20;;;;;;20821654;28;20246;-72
2023/04/19 12:58:51;;;;;;;3.83;1.70;;;16.00;47.50;;;;;;20775930;28;20209;-71
2023/04/19 13:08:53;;;;;;;4.00;1.90;;;16.10;45.80;;;;;;20804460;28;20236;-72
2023/04/19 13:18:55;;;;;;;154.00;9.93;;;16.40;44.60;;;;;;20882915;28;20712;-72
2023/04/19 13:33:10;;;;;;;1.93;1.73;;;16.70;42.00;;;;;;20990481;28;20572;-73
2023/04/19 13:43:12;;;;;;;1.60;1.50;;;17.10;41.20;;;;;;20917653;28;20237;-69
2023/04/19 13:53:14;;;;;;;2.53;1.80;;;;;;;;;;20898540;28;20215;-70
2023/04/19 14:03:16;;;;;;;2.75;1.60;;;26.30;33.60;;;;;;20898949;28;20222;-71
2023/04/19 14:13:18;;;;;;;1.70;1.50;;;;;;;;;;20896997;28;20632;-73
2023/04/19 14:23:20;;;;;;;2.45;1.50;;;29.90;26.70;;;;;;20895974;28;20246;-71
2023/04/19 14:33:22;;;;;;;2.10;1.50;;;30.50;25.00;;;;;;20897090;28;20621;-72
2023/04/19 14:43:24;;;;;;;2.15;1.75;;;31.40;24.40;;;;;;20846584;28;20615;-69
2023/04/19 14:53:26;;;;;;;2.05;1.60;;;29.50;25.20;;;;;;20840155;28;20674;-69
2023/04/19 15:03:28;;;;;;;2.65;1.70;;;31.40;24.50;;;;;;20839344;28;20558;-70
2023/04/19 15:13:30;;;;;;;4.20;1.75;;;27.70;24.30;;;;;;20838549;28;20223;-70
2023/04/19 15:23:32;;;;;;;5.63;1.80;;;;;;;;;;20837314;28;20289;-69
2023/04/19 15:33:35;;;;;;;2.90;2.00;;;21.30;28.40;;;;;;20837325;28;20632;-67
2023/04/19 15:43:37;;;;;;;3.60;2.47;;;21.30;28.80;;;;;;20769660;28;20660;-67
2023/04/19 15:53:38;;;;;;;9.07;2.40;;;23.20;28.60;;;;;;20752505;28;20745;-68
2023/04/19 16:03:40;;;;;;;3.90;2.50;;;20.60;29.20;;;;;;20753231;28;20243;-69
2023/04/19 16:13:42;;;;;;;3.20;2.17;;;22.50;28.70;;;;;;20752706;28;20222;-71
2023/04/19 16:23:44;;;;;;;4.80;2.30;;;21.90;28.60;;;;;;20751448;28;20773;-67
2023/04/19 16:33:45;;;;;;;10.73;5.40;;;22.50;29.30;;;;;;20752375;28;20216;-68
2023/04/19 16:43:47;;;;;;;2.40;1.90;;;23.20;28.20;;;;;;20818461;28;20247;-70
2023/04/19 16:53:49;;;;;;;3.20;2.28;;;23.30;27.20;;;;;;20831642;28;20227;-67
2023/04/19 17:03:50;;;;;;;3.67;2.20;;;20.40;27.10;;;;;;20830907;28;20416;-69
2023/04/19 17:13:53;;;;;;;3.77;2.33;;;20.30;27.60;;;;;;20830335;28;20664;-69
2023/04/19 17:23:57;;;;;;;6.27;2.60;;;16.80;30.30;;;;;;20829774;28;20265;-69
2023/04/19 17:33:59;;;;;;;7.70;2.77;;;16.00;31.70;;;;;;20829847;28;20213;-69
2023/04/19 17:44:00;;;;;;;3.43;2.30;;;15.20;32.70;;;;;;20759302;28;20636;-69
2023/04/19 17:54:02;;;;;;;3.90;2.63;;;14.70;33.50;;;;;;20746922;28;20212;-74
2023/04/19 18:04:04;;;;;;;4.80;3.03;;;14.30;34.60;;;;;;20808957;28;20247;-65
2023/04/19 18:14:06;;;;;;;5.40;3.10;;;13.90;36.50;;;;;;20849797;28;20211;-70
2023/04/19 18:24:08;;;;;;;7.33;3.23;;;13.30;38.30;;;;;;20845204;28;20248;-67
2023/04/19 18:34:10;;;;;;;6.33;3.70;;;12.80;39.60;;;;;;20842674;28;20598;-68
2023/04/19 18:44:13;;;;;;;6.97;3.43;;;12.50;40.40;;;;;;20841301;28;20291;-66
2023/04/19 18:54:36;;;;;;;5.73;3.53;;;12.20;41.00;;;;;;20842315;28;20212;-67
2023/04/19 19:04:37;;;;;;;8.17;3.47;;;12.20;41.50;;;;;;20885288;28;20270;-67
2023/04/19 19:18:43;;;;;;;6.97;3.73;;;11.70;42.90;;;;;;20947841;28;20582;-65
2023/04/19 19:28:45;;;;;;;8.60;3.67;;;11.60;43.80;;;;;;20948252;28;20694;-67
2023/04/19 19:38:47;;;;;;;5.60;3.90;;;11.40;44.60;;;;;;20982605;28;20303;-66
2023/04/19 19:48:49;;;;;;;8.00;4.00;;;11.40;45.10;;;;;;20981945;28;20262;-66
2023/04/19 19:58:54;;;;;;;9.67;4.13;;;11.00;46.20;;;;;;20980469;28;20246;-67
2023/04/19 20:08:58;;;;;;;5.90;3.70;;;10.80;47.00;;;;;;20978989;28;20200;-66
2023/04/19 20:19:06;;;;;;;6.63;4.30;;;10.80;47.30;;;;;;20979032;28;20239;-66
2023/04/19 20:29:08;;;;;;;7.40;4.43;;;10.60;47.90;;;;;;20928328;28;20228;-67
2023/04/19 20:39:11;;;;;;;8.20;4.63;;;10.40;49.00;;;;;;20922588;28;20217;-66
2023/04/19 20:49:15;;;;;;;7.83;4.40;;;10.40;49.60;;;;;;20922218;28;20322;-67
2023/04/19 20:59:17;;;;;;;8.07;5.03;;;10.10;50.30;;;;;;20920938;28;20211;-68
2023/04/19 21:09:19;;;;;;;8.87;4.30;;;10.00;50.70;;;;;;20917963;28;20240;-69
2023/04/19 21:19:21;;;;;;;14.73;4.93;;;9.80;52.10;;;;;;20914566;28;20204;-69
2023/04/19 21:29:24;;;;;;;9.57;5.40;;;9.60;53.70;;;;;;20918530;28;20282;-69
2023/04/19 21:39:25;;;;;;;11.37;5.70;;;9.30;54.50;;;;;;20916988;28;20220;-69
2023/04/19 21:49:27;;;;;;;7.63;4.67;;;9.20;55.30;;;;;;20917317;28;20232;-68
2023/04/19 21:59:29;;;;;;;8.83;4.90;;;9.10;55.60;;;;;;20917021;28;20207;-67
2023/04/19 22:09:31;;;;;;;8.83;5.30;;;8.80;56.60;;;;;;20914245;28;20637;-66
2023/04/19 22:19:33;;;;;;;8.37;5.07;;;8.60;57.50;;;;;;20915124;28;20211;-68
2023/04/19 22:29:35;;;;;;;7.17;4.90;;;8.30;58.00;;;;;;20914839;28;20246;-68
2023/04/19 22:39:36;;;;;;;10.57;5.07;;;8.10;58.70;;;;;;20913886;28;20235;-68
2023/04/19 22:49:40;;;;;;;10.10;5.03;;;8.10;59.40;;;;;;20913175;28;20700;-65
2023/04/19 22:59:43;;;;;;;10.60;5.03;;;8.20;60.20;;;;;;20913131;28;20251;-65
2023/04/19 23:09:45;;;;;;;6.80;5.00;;;8.30;60.70;;;;;;20912493;28;20237;-65
2023/04/19 23:19:47;;;;;;;7.67;4.50;;;8.20;61.20;;;;;;20912077;28;20212;-65
2023/04/19 23:29:49;;;;;;;8.33;4.63;;;8.20;62.00;;;;;;20911811;28;20296;-65
2023/04/19 23:39:51;;;;;;;10.70;4.80;;;8.00;62.70;;;;;;20911202;28;20207;-65
2023/04/19 23:49:52;;;;;;;7.83;4.43;;;8.00;63.50;;;;;;20910524;28;20231;-66
2023/04/19 23:59:54;;;;;;;9.03;4.47;;;8.00;64.10;;;;;;20917420;28;20203;-67
